KTXK/TXK METAR and TAF weather

Enter ICAO airport designator
Station Type Date Time Source
KTXK METAR 2021/04/17 01:27 UTC NOAA

KTXK 170127Z 02006KT 4SM -RA BR OVC005 12/11 A2989 RMK AO2 CIG 002V008 P0002 T01220111


Station Type Date Time Source
KTXK Decoded METAR 2021/04/17 01:27 UTC NOAA

TEXARKANA RGNL WEBB FIELD, AR, United States (KTXK) 33-27N 093-59W 111M
Apr 16, 2021 - 09:27 PM EDT / 2021.04.17 0127 UTC
Wind: from the NNE (020 degrees) at 7 MPH (6 KT):0
Visibility: 4 mile(s):0
Sky conditions: overcast
Weather: light rain; mist
Precipitation last hour: 0.02 inches
Temperature: 54.0 F (12.2 C)
Dew Point: 52.0 F (11.1 C)
Relative Humidity: 92%
Pressure (altimeter): 29.89 in. Hg (1012 hPa)
ob: KTXK 170127Z 02006KT 4SM -RA BR OVC005 12/11 A2989 RMK AO2 CIG 002V008 P0002 T01220111
cycle: 1

Station Type Date Time Source
KTXK TAF 2021/04/17 01:24 UTC NOAA

TAF
AMD KTXK 170121Z 1701/1724 06009KT 3SM -RA BR OVC004
FM170300 35005KT P6SM OVC004
FM171400 34008KT P6SM OVC015
FM171700 33010KT P6SM OVC025
FM172000 33009KT P6SM OVC060

Example: see airport list